createdAt,value
2018-04-12T04:35:04.426Z,28.83
2018-04-12T04:37:36.320Z,36.63
2018-04-12T04:40:08.262Z,32.40
2018-04-12T04:42:40.149Z,33.90
2018-04-12T04:45:12.885Z,35.80
2018-04-12T04:47:44.773Z,41.40
2018-04-12T04:50:16.648Z,34.70
2018-04-12T04:52:49.286Z,37.20
2018-04-12T04:55:21.156Z,38.10
2018-04-12T04:57:53.123Z,34.80
2018-04-12T05:00:24.986Z,36.17
2018-04-12T05:02:57.197Z,39.33
2018-04-12T05:05:29.105Z,40.73
2018-04-12T05:08:00.996Z,50.87
2018-04-12T05:10:33.630Z,41.67
2018-04-12T05:13:05.534Z,39.43
2018-04-12T05:15:38.485Z,38.50
2018-04-12T05:18:10.334Z,45.03
2018-04-12T05:20:42.213Z,43.57
2018-04-12T05:23:14.093Z,40.63
2018-04-12T05:25:45.974Z,41.70
2018-04-12T05:28:18.629Z,43.67
2018-04-12T05:30:50.511Z,46.60
2018-04-12T05:33:23.162Z,43.17
2018-04-12T05:35:55.029Z,46.93
2018-04-12T05:38:27.229Z,49.43
2018-04-12T05:40:59.089Z,52.00
2018-04-12T05:43:30.974Z,55.00
2018-04-12T05:46:03.110Z,53.63
2018-04-12T05:48:34.999Z,56.57
2018-04-12T05:51:06.873Z,58.03
2018-04-12T05:53:38.830Z,64.83
2018-04-12T05:56:10.807Z,69.87
2018-04-12T05:58:42.690Z,71.57
2018-04-12T06:01:14.561Z,66.00
2018-04-12T06:03:47.226Z,73.33
2018-04-12T06:06:19.111Z,69.00
2018-04-12T06:08:50.999Z,75.00
2018-04-12T06:11:22.972Z,74.50
2018-04-12T06:13:54.948Z,76.60
2018-04-12T06:16:27.062Z,83.37
2018-04-12T06:18:58.967Z,80.70
2018-04-12T06:21:31.047Z,87.87
2018-04-12T06:24:03.261Z,82.73
2018-04-12T06:26:35.129Z,83.60
2018-04-12T06:29:07.117Z,92.40
2018-04-12T06:31:39.006Z,82.80
2018-04-12T06:34:10.948Z,72.77
2018-04-12T06:36:42.847Z,72.77
2018-04-12T06:39:15.748Z,71.43
2018-04-12T06:41:48.384Z,66.90
2018-04-12T06:44:21.864Z,61.80
2018-04-12T06:46:53.835Z,62.00
2018-04-12T06:49:25.745Z,67.90
2018-04-12T06:51:57.621Z,62.40
2018-04-12T06:54:29.765Z,57.20
2018-04-12T06:57:01.874Z,72.63
2018-04-12T06:59:33.881Z,68.07
2018-04-12T07:02:05.803Z,63.00
2018-04-12T07:04:37.782Z,76.57
2018-04-12T07:07:09.649Z,75.07
2018-04-12T07:09:41.641Z,74.10
2018-04-12T07:12:13.811Z,69.83
2018-04-12T07:14:45.973Z,74.40
2018-04-12T07:17:18.145Z,77.77
2018-04-12T07:19:50.050Z,74.57
2018-04-12T07:22:21.934Z,84.17
2018-04-12T07:24:53.877Z,86.67
2018-04-12T07:27:25.832Z,98.03
2018-04-12T07:29:58.054Z,87.50
2018-04-12T07:32:30.222Z,94.30
2018-04-12T07:35:02.124Z,96.07
2018-04-12T07:37:34.002Z,104.40
2018-04-12T07:40:06.213Z,106.73
2018-04-12T07:42:38.373Z,99.87
2018-04-12T07:45:10.270Z,89.37
2018-04-12T07:47:42.145Z,91.87
2018-04-12T07:50:14.097Z,95.40
2018-04-12T07:52:45.973Z,92.03
2018-04-12T07:55:17.861Z,95.00
2018-04-12T07:57:50.509Z,98.40
2018-04-12T08:00:22.459Z,95.37
2018-04-12T08:02:54.686Z,98.87
2018-04-12T08:05:26.573Z,95.13
2018-04-12T08:07:58.578Z,94.90
2018-04-12T08:10:30.512Z,86.30
2018-04-12T08:13:02.386Z,80.33
2018-04-12T08:15:34.341Z,81.43
2018-04-12T08:18:06.209Z,76.57
2018-04-12T08:20:38.092Z,74.57
2018-04-12T08:23:10.739Z,74.17
2018-04-12T08:25:42.692Z,70.37
2018-04-12T08:28:14.821Z,66.63
2018-04-12T08:30:46.983Z,67.43
2018-04-12T08:33:18.869Z,59.60
2018-04-12T08:35:50.784Z,60.90
2018-04-12T08:38:23.530Z,62.53
2018-04-12T08:40:55.653Z,63.20
2018-04-12T08:43:27.749Z,59.57
2018-04-12T08:45:59.634Z,55.60
2018-04-12T08:48:31.581Z,56.50
2018-04-12T08:51:03.473Z,58.93
2018-04-12T08:53:36.223Z,63.10
2018-04-12T08:56:08.182Z,58.27
2018-04-12T08:58:40.366Z,64.13
2018-04-12T09:01:12.578Z,62.53
2018-04-12T09:03:44.453Z,57.97
2018-04-12T09:06:17.522Z,54.83
2018-04-12T09:08:49.405Z,55.57
2018-04-12T09:11:21.565Z,57.40
2018-04-12T09:13:54.893Z,53.03
2018-04-12T09:16:26.865Z,50.50
2018-04-12T09:18:58.743Z,51.23
2018-04-12T09:21:32.061Z,53.80
2018-04-12T09:24:04.227Z,51.53
2018-04-12T09:26:36.113Z,52.23
2018-04-12T09:29:07.998Z,52.13
2018-04-12T09:31:39.950Z,52.80
2018-04-12T09:34:11.923Z,53.33
2018-04-12T09:36:43.873Z,53.97
2018-04-12T09:39:15.833Z,51.43
2018-04-12T09:41:47.964Z,58.10
2018-04-12T09:44:19.846Z,47.57
2018-04-12T09:46:51.830Z,48.43
2018-04-12T09:49:23.813Z,52.57
2018-04-12T09:51:56.011Z,49.77
2018-04-12T09:54:28.185Z,47.53
2018-04-12T09:57:00.449Z,47.40
2018-04-12T09:59:32.394Z,48.03
2018-04-12T10:02:05.118Z,43.67
2018-04-12T10:04:36.989Z,40.37
2018-04-12T10:07:09.213Z,39.87
2018-04-12T10:09:41.382Z,42.60
2018-04-12T10:12:13.524Z,39.73
2018-04-12T10:14:45.464Z,33.63
2018-04-12T10:17:17.368Z,40.27
2018-04-12T10:19:50.005Z,37.83
2018-04-12T10:22:21.957Z,40.10
2018-04-12T10:24:53.913Z,37.60
2018-04-12T10:27:25.878Z,35.63
2018-04-12T10:29:57.851Z,39.10
2018-04-12T10:32:29.780Z,38.47
2018-04-12T10:35:01.923Z,38.73
2018-04-12T10:37:33.826Z,39.27
2018-04-12T10:40:05.758Z,37.63
2018-04-12T10:42:37.646Z,37.47
2018-04-12T10:45:09.601Z,36.40
2018-04-12T10:47:41.537Z,43.87
2018-04-12T10:50:13.418Z,39.70
2018-04-12T10:52:45.389Z,38.37
2018-04-12T10:55:17.373Z,36.47
2018-04-12T10:57:49.325Z,36.42
2018-04-12T11:00:21.277Z,40.13
2018-04-12T11:02:53.237Z,39.47
2018-04-12T11:05:25.366Z,37.83
2018-04-12T11:07:57.284Z,37.63
2018-04-12T11:10:29.231Z,33.87
2018-04-12T11:13:01.116Z,36.13
2018-04-12T11:15:32.985Z,38.63
2018-04-12T11:18:05.641Z,35.93
2018-04-12T11:20:37.590Z,39.87
2018-04-12T11:23:09.813Z,34.93
2018-04-12T11:25:41.733Z,35.77
2018-04-12T11:28:13.622Z,36.47
2018-04-12T11:30:46.574Z,36.13
2018-04-12T11:33:18.826Z,38.73
2018-04-12T11:35:50.674Z,33.07
2018-04-12T11:38:22.578Z,35.33
2018-04-12T11:40:54.462Z,33.63
2018-04-12T11:43:27.164Z,31.17
2018-04-12T11:45:59.872Z,34.30
2018-04-12T11:48:31.766Z,32.43
2018-04-12T11:51:04.413Z,40.57
2018-04-12T11:53:36.377Z,42.43
2018-04-12T11:56:08.283Z,35.03
2018-04-12T11:58:40.154Z,30.40
2018-04-12T12:01:12.041Z,38.73
2018-04-12T12:03:43.934Z,31.30
2018-04-12T12:06:15.882Z,28.90
2018-04-12T12:08:47.778Z,40.57
2018-04-12T12:11:20.460Z,36.90
2018-04-12T12:13:53.117Z,38.03
2018-04-12T12:16:24.998Z,36.20
2018-04-12T12:18:57.898Z,35.27
2018-04-12T12:21:30.062Z,33.33
2018-04-12T12:24:01.960Z,34.37
2018-04-12T12:26:33.834Z,34.97
2018-04-12T12:29:05.740Z,31.73
2018-04-12T12:31:38.390Z,34.60
2018-04-12T12:34:10.277Z,33.77
2018-04-12T12:36:42.186Z,31.23
2018-04-12T12:39:14.077Z,32.33
2018-04-12T12:41:46.738Z,33.10
2018-04-12T12:44:18.621Z,33.03
2018-04-12T12:46:51.522Z,27.20
2018-04-12T12:49:23.421Z,30.43
2018-04-12T12:51:55.649Z,31.10
2018-04-12T12:54:28.142Z,31.87
2018-04-12T12:57:00.009Z,30.70
2018-04-12T12:59:31.900Z,29.50
2018-04-12T13:02:03.778Z,28.63
2018-04-12T13:04:35.662Z,30.20
2018-04-12T13:07:08.454Z,32.57
2018-04-12T13:09:40.342Z,32.53
2018-04-12T13:12:12.227Z,29.17
2018-04-12T13:14:44.126Z,32.43
2018-04-12T13:17:16.774Z,28.57
2018-04-12T13:19:48.662Z,27.30
2018-04-12T13:22:21.314Z,26.67
2018-04-12T13:24:53.207Z,25.87
2018-04-12T13:27:25.082Z,25.90
2018-04-12T13:29:57.234Z,26.13
2018-04-12T13:32:29.400Z,26.57
2018-04-12T13:35:01.565Z,26.50
2018-04-12T13:37:33.461Z,24.63
2018-04-12T13:40:05.356Z,29.60
2018-04-12T13:42:37.350Z,29.87
2018-04-12T13:45:09.248Z,29.63
2018-04-12T13:47:41.222Z,25.70
2018-04-12T13:50:13.178Z,23.77
2018-04-12T13:52:45.865Z,22.57
2018-04-12T13:55:17.865Z,26.20
2018-04-12T13:57:50.514Z,24.17
2018-04-12T14:00:23.180Z,25.37
2018-04-12T14:02:55.297Z,24.77
2018-04-12T14:05:27.201Z,23.62
2018-04-12T14:07:59.170Z,23.80
2018-04-12T14:10:31.058Z,25.07
2018-04-12T14:13:03.725Z,24.13
2018-04-12T14:15:36.028Z,25.20
2018-04-12T14:18:08.060Z,20.20
2018-04-12T14:20:40.002Z,25.23
2018-04-12T14:23:11.882Z,23.27
2018-04-12T14:25:43.863Z,19.08
2018-04-12T14:28:16.506Z,22.00
2018-04-12T14:30:48.723Z,22.27
2018-04-12T14:33:20.618Z,20.27
2018-04-12T14:35:52.590Z,22.17
2018-04-12T14:38:25.186Z,20.17
2018-04-12T14:40:57.081Z,21.13
2018-04-12T14:43:28.965Z,20.73
2018-04-12T14:46:00.945Z,19.62
2018-04-12T14:48:32.822Z,19.50
2018-04-12T14:51:04.740Z,21.50
2018-04-12T14:53:36.618Z,22.93
2018-04-12T14:56:09.280Z,19.37
2018-04-12T14:58:41.153Z,20.27
2018-04-12T15:01:13.041Z,17.10
2018-04-12T15:03:45.194Z,21.93
2018-04-12T15:06:17.103Z,15.20
2018-04-12T15:08:49.998Z,14.87
2018-04-12T15:11:22.161Z,14.93
2018-04-12T15:13:54.331Z,15.83
2018-04-12T15:16:26.212Z,12.83
2018-04-12T15:18:58.114Z,12.67
2018-04-12T15:21:30.054Z,14.67
2018-04-12T15:24:01.973Z,16.00
2018-04-12T15:26:33.874Z,17.10
2018-04-12T15:29:05.754Z,11.87
2018-04-12T15:31:37.688Z,15.40
2018-04-12T15:34:09.570Z,12.93
2018-04-12T15:36:41.458Z,14.90
2018-04-12T15:39:14.157Z,14.23
2018-04-12T15:41:46.323Z,15.37
2018-04-12T15:44:18.241Z,15.47
2018-04-12T15:46:50.353Z,16.80
2018-04-12T15:49:22.223Z,15.30
2018-04-12T15:51:54.125Z,11.27
2018-04-12T15:54:26.342Z,13.57
2018-04-12T15:56:58.299Z,16.58
2018-04-12T15:59:30.213Z,15.40
2018-04-12T16:02:02.142Z,14.33
2018-04-12T16:04:34.290Z,15.27
2018-04-12T16:07:06.205Z,13.97
2018-04-12T16:09:38.073Z,12.43
2018-04-12T16:12:09.958Z,12.87
2018-04-12T16:14:42.597Z,8.97
2018-04-12T16:17:14.826Z,9.68
2018-04-12T16:19:46.693Z,12.57
2018-04-12T16:22:18.841Z,11.43
2018-04-12T16:24:51.005Z,13.47
2018-04-12T16:27:22.899Z,12.80
2018-04-12T16:29:55.038Z,11.27
2018-04-12T16:32:26.934Z,12.03
2018-04-12T16:34:58.813Z,14.10
2018-04-12T16:37:30.693Z,13.67
2018-04-12T16:40:03.697Z,11.83
2018-04-12T16:42:35.865Z,12.07
2018-04-12T16:45:07.733Z,12.57
2018-04-12T16:47:39.630Z,16.10
2018-04-12T16:50:11.502Z,13.17
2018-04-12T16:52:43.386Z,12.80
2018-04-12T16:55:16.028Z,11.70
2018-04-12T16:57:47.913Z,10.90
2018-04-12T17:00:19.797Z,17.17
2018-04-12T17:02:52.438Z,16.67
2018-04-12T17:05:24.315Z,13.53
2018-04-12T17:07:56.201Z,11.60
2018-04-12T17:10:28.293Z,15.07
2018-04-12T17:13:00.182Z,12.27
2018-04-12T17:15:32.062Z,12.77
2018-04-12T17:18:04.085Z,15.43
2018-04-12T17:20:36.099Z,12.03
2018-04-12T17:23:08.908Z,14.00
2018-04-12T17:25:40.975Z,14.20
2018-04-12T17:28:13.057Z,18.23
2018-04-12T17:30:45.053Z,15.43
2018-04-12T17:33:17.733Z,14.83
2018-04-12T17:35:49.648Z,13.77
2018-04-12T17:38:21.635Z,16.93
2018-04-12T17:40:53.509Z,13.70
2018-04-12T17:43:25.398Z,16.77
2018-04-12T17:45:58.130Z,13.17
2018-04-12T17:48:30.018Z,18.60
2018-04-12T17:51:01.922Z,16.03
2018-04-12T17:53:33.814Z,16.20
2018-04-12T17:56:05.801Z,14.57
2018-04-12T17:58:37.695Z,11.30
2018-04-12T18:01:10.463Z,11.63
2018-04-12T18:03:43.109Z,13.77
2018-04-12T18:06:15.221Z,11.33
2018-04-12T18:08:47.155Z,13.90
2018-04-12T18:11:19.042Z,15.63
2018-04-12T18:13:50.925Z,11.03
2018-04-12T18:16:22.797Z,15.20
2018-04-12T18:18:54.764Z,11.60
2018-04-12T18:21:26.663Z,13.37
2018-04-12T18:23:59.464Z,12.77
2018-04-12T18:26:32.109Z,15.83
2018-04-12T18:29:04.052Z,17.80
2018-04-12T18:31:35.942Z,14.13
2018-04-12T18:34:08.618Z,12.50
2018-04-12T18:36:40.546Z,10.67
2018-04-12T18:39:12.773Z,12.87
2018-04-12T18:41:44.689Z,13.23
2018-04-12T18:44:16.903Z,12.77
2018-04-12T18:46:48.808Z,11.53
2018-04-12T18:49:20.695Z,9.43
2018-04-12T18:51:52.586Z,9.13
2018-04-12T18:54:24.765Z,10.07
2018-04-12T18:56:56.917Z,10.00
2018-04-12T18:59:28.801Z,11.60
2018-04-12T19:02:00.681Z,12.17
2018-04-12T19:04:32.649Z,9.77
2018-04-12T19:07:04.526Z,12.67
2018-04-12T19:09:36.829Z,10.10
2018-04-12T19:12:08.731Z,13.47
2018-04-12T19:14:40.623Z,12.93
2018-04-12T19:17:12.526Z,11.83
